Aérodrome :
LOGIN :

S'inscrire | Disclaimer

   EN    FR    IT 

 










Légende :    VFR   VFR Marginal   IFR   IFR Intensif   IFR Très Intensif
Visi : 
Plafond : 
>= 8 km
>= 3000ft
5 à 8 km
1000 à 3000 ft
1500m à 5 km
500 à 1000 ft
800 à 1500m
200 à 500 ft
< 800m
< 200 ft
Symboles :   Orages  Brouillard  Fortes neiges  Fortes précipitations  Vent > 20 kt
SIGMETs :   Divers  Orages  Givrage  Turbulence  Onde Orograph.  Cendres Volcan.







- Altitude de l'aérodrome : 502 ft
- Code IATA : ORK


EICK - Cork

DERNIER METAR :
  • 260900Z 25012KT 9999 SCT022 BKN250 09/05 Q1016 NOSIG

METARs EXPIRÉS :
  • 260830Z 26012KT 9999 FEW020 BKN250 09/05 Q1016 NOSIG
  • 260800Z 25011KT 9999 FEW017 BKN250 08/05 Q1016 NOSIG
  • 260730Z 25009KT 9999 FEW017 BKN250 07/05 Q1016 NOSIG
  • 260700Z 23010KT 9999 FEW017 BKN250 06/04 Q1016 NOSIG
  • 260630Z 23008KT 9999 FEW035 04/03 Q1016 NOSIG

TAF TAF EICK
Valide du 26 à 06h jusqu'au 27 à 06h UTC


260500Z 2606/2706 26012KT 9999 FEW017 SCT030
TEMPO 2606/2607 25007KT
PROB30
TEMPO 2611/2618 -SHRA SCT017CB
BECMG 2615/2617 23006KT
BECMG 2618/2621 VRB03KT
TEMPO 2619/2706 4000 RA SCT008 BKN010
BECMG 2701/2704 02012KT
Pas de NOTAMs connus pour ce terrain.



MET'MAP, la Météo Aéronautique d'un coup d'oeil ! - Copyright ORBIFLY Décembre 2007 - Disclaimer

ORBIFLY MET'MAP TEAM :

Programmation & Développement : Alexandra Zaïnal
Conception & Développement : Baudouin d'Aumeries
Co-Programmation & Développement : Marc-Olivier Méhu
Soutien technique & logistique : Manuel Goepfert

Contact : metmap@orbifly.com




SOURCES & CREDITS :

   NOAA